sensor_id;sensor_type;location;lat;lon;timestamp;temperature;humidity
9329;DHT22;4703;48.748;19.142;2023-04-25T00:02:24;12.40;99.90
9329;DHT22;4703;48.748;19.142;2023-04-25T00:04:51;12.40;99.90
9329;DHT22;4703;48.748;19.142;2023-04-25T00:07:19;12.60;99.90
9329;DHT22;4703;48.748;19.142;2023-04-25T00:09:46;12.60;99.90
9329;DHT22;4703;48.748;19.142;2023-04-25T00:12:13;12.50;99.90
9329;DHT22;4703;48.748;19.142;2023-04-25T00:14:40;12.40;99.90
9329;DHT22;4703;48.748;19.142;2023-04-25T00:17:07;11.70;99.90
9329;DHT22;4703;48.748;19.142;2023-04-25T00:19:34;12.30;99.90
9329;DHT22;4703;48.748;19.142;2023-04-25T00:22:01;11.80;99.90
9329;DHT22;4703;48.748;19.142;2023-04-25T00:24:28;13.00;99.90
9329;DHT22;4703;48.748;19.142;2023-04-25T00:26:55;10.60;99.90
9329;DHT22;4703;48.748;19.142;2023-04-25T00:29:22;12.10;99.90
9329;DHT22;4703;48.748;19.142;2023-04-25T00:31:49;12.40;99.90
9329;DHT22;4703;48.748;19.142;2023-04-25T00:34:16;11.70;99.90
9329;DHT22;4703;48.748;19.142;2023-04-25T00:36:43;12.10;99.90
9329;DHT22;4703;48.748;19.142;2023-04-25T00:39:10;10.80;99.90
9329;DHT22;4703;48.748;19.142;2023-04-25T00:41:38;12.20;99.90
9329;DHT22;4703;48.748;19.142;2023-04-25T00:44:08;12.60;99.90
9329;DHT22;4703;48.748;19.142;2023-04-25T00:46:39;11.20;99.90
9329;DHT22;4703;48.748;19.142;2023-04-25T00:49:06;11.00;99.90
9329;DHT22;4703;48.748;19.142;2023-04-25T00:51:33;12.20;99.90
9329;DHT22;4703;48.748;19.142;2023-04-25T00:54:01;10.90;99.90
9329;DHT22;4703;48.748;19.142;2023-04-25T00:56:28;12.20;99.90
9329;DHT22;4703;48.748;19.142;2023-04-25T00:58:56;10.40;99.90
9329;DHT22;4703;48.748;19.142;2023-04-25T01:01:23;12.70;99.90
9329;DHT22;4703;48.748;19.142;2023-04-25T01:03:50;11.80;99.90
9329;DHT22;4703;48.748;19.142;2023-04-25T01:06:18;11.00;99.90
9329;DHT22;4703;48.748;19.142;2023-04-25T01:08:45;13.20;99.90
9329;DHT22;4703;48.748;19.142;2023-04-25T01:11:12;12.90;99.90
9329;DHT22;4703;48.748;19.142;2023-04-25T01:13:39;12.80;99.90
9329;DHT22;4703;48.748;19.142;2023-04-25T01:16:06;11.50;99.90
9329;DHT22;4703;48.748;19.142;2023-04-25T01:18:33;10.40;99.90
9329;DHT22;4703;48.748;19.142;2023-04-25T01:21:11;12.50;99.90
9329;DHT22;4703;48.748;19.142;2023-04-25T01:23:40;10.40;99.90
9329;DHT22;4703;48.748;19.142;2023-04-25T01:26:12;10.40;99.90
9329;DHT22;4703;48.748;19.142;2023-04-25T01:28:40;11.30;99.90
9329;DHT22;4703;48.748;19.142;2023-04-25T01:31:08;12.50;99.90
9329;DHT22;4703;48.748;19.142;2023-04-25T01:33:35;11.70;99.90
9329;DHT22;4703;48.748;19.142;2023-04-25T01:36:04;10.40;99.90
9329;DHT22;4703;48.748;19.142;2023-04-25T01:38:31;10.40;99.90
9329;DHT22;4703;48.748;19.142;2023-04-25T01:40:59;10.60;99.90
9329;DHT22;4703;48.748;19.142;2023-04-25T01:43:26;11.20;99.90
9329;DHT22;4703;48.748;19.142;2023-04-25T01:45:53;12.00;99.90
9329;DHT22;4703;48.748;19.142;2023-04-25T01:48:20;10.30;99.90
9329;DHT22;4703;48.748;19.142;2023-04-25T01:50:47;10.40;99.90
9329;DHT22;4703;48.748;19.142;2023-04-25T01:53:14;10.40;99.90
9329;DHT22;4703;48.748;19.142;2023-04-25T01:55:42;12.40;99.90
9329;DHT22;4703;48.748;19.142;2023-04-25T01:58:09;10.30;99.90
9329;DHT22;4703;48.748;19.142;2023-04-25T02:00:39;10.50;99.90
9329;DHT22;4703;48.748;19.142;2023-04-25T02:03:07;10.30;99.90
9329;DHT22;4703;48.748;19.142;2023-04-25T02:05:39;10.30;99.90
9329;DHT22;4703;48.748;19.142;2023-04-25T02:08:08;12.70;99.90
9329;DHT22;4703;48.748;19.142;2023-04-25T02:10:36;11.90;99.90
9329;DHT22;4703;48.748;19.142;2023-04-25T02:13:03;10.30;99.90
9329;DHT22;4703;48.748;19.142;2023-04-25T02:15:31;12.10;99.90
9329;DHT22;4703;48.748;19.142;2023-04-25T02:17:58;11.10;99.90
9329;DHT22;4703;48.748;19.142;2023-04-25T02:20:28;10.80;99.90
9329;DHT22;4703;48.748;19.142;2023-04-25T02:22:56;10.40;99.90
9329;DHT22;4703;48.748;19.142;2023-04-25T02:25:23;10.20;99.90
9329;DHT22;4703;48.748;19.142;2023-04-25T02:27:50;10.20;99.90
9329;DHT22;4703;48.748;19.142;2023-04-25T02:30:18;11.40;99.90
9329;DHT22;4703;48.748;19.142;2023-04-25T02:32:45;10.20;99.90
9329;DHT22;4703;48.748;19.142;2023-04-25T02:35:12;11.40;99.90
9329;DHT22;4703;48.748;19.142;2023-04-25T02:37:40;10.20;99.90
9329;DHT22;4703;48.748;19.142;2023-04-25T02:40:07;10.20;99.90
9329;DHT22;4703;48.748;19.142;2023-04-25T02:42:35;10.20;99.90
9329;DHT22;4703;48.748;19.142;2023-04-25T02:45:02;12.20;99.90
9329;DHT22;4703;48.748;19.142;2023-04-25T02:47:30;10.10;99.90
9329;DHT22;4703;48.748;19.142;2023-04-25T02:49:57;12.10;99.90
9329;DHT22;4703;48.748;19.142;2023-04-25T02:52:24;10.10;99.90
9329;DHT22;4703;48.748;19.142;2023-04-25T02:54:51;12.80;99.90
9329;DHT22;4703;48.748;19.142;2023-04-25T02:57:18;11.50;99.90
9329;DHT22;4703;48.748;19.142;2023-04-25T02:59:45;12.40;99.90
9329;DHT22;4703;48.748;19.142;2023-04-25T03:02:12;12.80;99.90
9329;DHT22;4703;48.748;19.142;2023-04-25T03:04:39;10.00;99.90
9329;DHT22;4703;48.748;19.142;2023-04-25T03:07:07;12.40;99.90
9329;DHT22;4703;48.748;19.142;2023-04-25T03:09:34;12.30;99.90
9329;DHT22;4703;48.748;19.142;2023-04-25T03:12:01;12.10;99.90
9329;DHT22;4703;48.748;19.142;2023-04-25T03:14:28;10.10;99.90
9329;DHT22;4703;48.748;19.142;2023-04-25T03:16:55;11.50;99.90
9329;DHT22;4703;48.748;19.142;2023-04-25T03:19:22;11.70;99.90
9329;DHT22;4703;48.748;19.142;2023-04-25T03:21:49;11.70;99.90
9329;DHT22;4703;48.748;19.142;2023-04-25T03:24:16;12.10;99.90
9329;DHT22;4703;48.748;19.142;2023-04-25T03:26:43;9.90;99.90
9329;DHT22;4703;48.748;19.142;2023-04-25T03:29:10;10.60;99.90
9329;DHT22;4703;48.748;19.142;2023-04-25T03:31:38;12.40;99.90
9329;DHT22;4703;48.748;19.142;2023-04-25T03:34:05;12.40;99.90
9329;DHT22;4703;48.748;19.142;2023-04-25T03:36:32;11.50;99.90
9329;DHT22;4703;48.748;19.142;2023-04-25T03:38:59;12.20;99.90
9329;DHT22;4703;48.748;19.142;2023-04-25T03:41:26;11.10;99.90
9329;DHT22;4703;48.748;19.142;2023-04-25T03:43:54;11.10;99.90
9329;DHT22;4703;48.748;19.142;2023-04-25T03:46:21;9.90;99.90
9329;DHT22;4703;48.748;19.142;2023-04-25T03:48:48;9.80;99.90
9329;DHT22;4703;48.748;19.142;2023-04-25T03:51:15;12.10;99.90
9329;DHT22;4703;48.748;19.142;2023-04-25T03:53:42;12.50;99.90
9329;DHT22;4703;48.748;19.142;2023-04-25T03:56:09;11.10;99.90
9329;DHT22;4703;48.748;19.142;2023-04-25T03:58:36;12.20;99.90
9329;DHT22;4703;48.748;19.142;2023-04-25T04:01:03;11.10;99.90
9329;DHT22;4703;48.748;19.142;2023-04-25T04:03:34;9.80;99.90
9329;DHT22;4703;48.748;19.142;2023-04-25T04:06:04;9.80;99.90
9329;DHT22;4703;48.748;19.142;2023-04-25T04:08:32;9.80;99.90
9329;DHT22;4703;48.748;19.142;2023-04-25T04:11:00;12.30;99.90
9329;DHT22;4703;48.748;19.142;2023-04-25T04:13:27;10.90;99.90
9329;DHT22;4703;48.748;19.142;2023-04-25T04:15:55;9.80;99.90
9329;DHT22;4703;48.748;19.142;2023-04-25T04:18:22;11.90;99.90
9329;DHT22;4703;48.748;19.142;2023-04-25T04:20:49;9.80;99.90
9329;DHT22;4703;48.748;19.142;2023-04-25T04:23:16;11.00;99.90
9329;DHT22;4703;48.748;19.142;2023-04-25T04:25:43;10.00;99.90
9329;DHT22;4703;48.748;19.142;2023-04-25T04:28:10;11.50;99.90
9329;DHT22;4703;48.748;19.142;2023-04-25T04:30:37;12.00;99.90
9329;DHT22;4703;48.748;19.142;2023-04-25T04:33:05;11.80;99.90
9329;DHT22;4703;48.748;19.142;2023-04-25T04:35:34;12.30;99.90
9329;DHT22;4703;48.748;19.142;2023-04-25T04:38:01;11.30;99.90
9329;DHT22;4703;48.748;19.142;2023-04-25T04:40:28;12.50;99.90
9329;DHT22;4703;48.748;19.142;2023-04-25T04:42:55;9.90;99.90
9329;DHT22;4703;48.748;19.142;2023-04-25T04:45:23;11.90;99.90
9329;DHT22;4703;48.748;19.142;2023-04-25T04:47:50;9.90;99.90
9329;DHT22;4703;48.748;19.142;2023-04-25T04:50:17;10.70;99.90
9329;DHT22;4703;48.748;19.142;2023-04-25T04:52:44;12.00;99.90
9329;DHT22;4703;48.748;19.142;2023-04-25T04:55:11;9.90;99.90
9329;DHT22;4703;48.748;19.142;2023-04-25T04:57:38;11.10;99.90
9329;DHT22;4703;48.748;19.142;2023-04-25T05:00:06;11.90;99.90
9329;DHT22;4703;48.748;19.142;2023-04-25T05:02:40;9.90;99.90
9329;DHT22;4703;48.748;19.142;2023-04-25T05:05:07;11.80;99.90
9329;DHT22;4703;48.748;19.142;2023-04-25T05:07:34;9.90;99.90
9329;DHT22;4703;48.748;19.142;2023-04-25T05:10:02;11.80;99.90
9329;DHT22;4703;48.748;19.142;2023-04-25T05:12:29;10.00;99.90
9329;DHT22;4703;48.748;19.142;2023-04-25T05:14:57;12.30;99.90
9329;DHT22;4703;48.748;19.142;2023-04-25T05:17:24;11.80;99.90
9329;DHT22;4703;48.748;19.142;2023-04-25T05:19:51;11.80;99.90
9329;DHT22;4703;48.748;19.142;2023-04-25T05:22:17;11.90;99.90
9329;DHT22;4703;48.748;19.142;2023-04-25T05:24:44;11.60;99.90
9329;DHT22;4703;48.748;19.142;2023-04-25T05:27:11;11.90;99.90
9329;DHT22;4703;48.748;19.142;2023-04-25T05:29:38;10.10;99.90
9329;DHT22;4703;48.748;19.142;2023-04-25T05:32:05;10.10;99.90
9329;DHT22;4703;48.748;19.142;2023-04-25T05:34:32;10.10;99.90
9329;DHT22;4703;48.748;19.142;2023-04-25T05:36:59;10.90;99.90
9329;DHT22;4703;48.748;19.142;2023-04-25T05:39:26;12.20;99.90
9329;DHT22;4703;48.748;19.142;2023-04-25T05:41:53;12.00;99.90
9329;DHT22;4703;48.748;19.142;2023-04-25T05:44:21;11.90;99.90
9329;DHT22;4703;48.748;19.142;2023-04-25T05:46:48;13.20;99.90
9329;DHT22;4703;48.748;19.142;2023-04-25T05:49:15;12.50;99.90
9329;DHT22;4703;48.748;19.142;2023-04-25T05:51:45;12.30;99.90
9329;DHT22;4703;48.748;19.142;2023-04-25T05:54:12;11.80;99.90
9329;DHT22;4703;48.748;19.142;2023-04-25T05:56:39;10.20;99.90
9329;DHT22;4703;48.748;19.142;2023-04-25T05:59:06;12.30;99.90
9329;DHT22;4703;48.748;19.142;2023-04-25T06:01:32;11.60;99.90
9329;DHT22;4703;48.748;19.142;2023-04-25T06:03:59;12.70;99.90
9329;DHT22;4703;48.748;19.142;2023-04-25T06:06:27;12.20;99.90
9329;DHT22;4703;48.748;19.142;2023-04-25T06:08:54;10.20;99.90
9329;DHT22;4703;48.748;19.142;2023-04-25T06:11:22;12.70;99.90
9329;DHT22;4703;48.748;19.142;2023-04-25T06:13:49;12.30;99.90
9329;DHT22;4703;48.748;19.142;2023-04-25T06:16:16;12.70;99.90
9329;DHT22;4703;48.748;19.142;2023-04-25T06:18:43;12.20;99.90
9329;DHT22;4703;48.748;19.142;2023-04-25T06:21:10;12.40;99.90
9329;DHT22;4703;48.748;19.142;2023-04-25T06:23:37;11.10;99.90
9329;DHT22;4703;48.748;19.142;2023-04-25T06:26:04;12.00;99.90
9329;DHT22;4703;48.748;19.142;2023-04-25T06:28:31;10.10;99.90
9329;DHT22;4703;48.748;19.142;2023-04-25T06:30:58;10.60;99.90
9329;DHT22;4703;48.748;19.142;2023-04-25T06:33:25;11.20;99.90
9329;DHT22;4703;48.748;19.142;2023-04-25T06:35:53;10.20;99.90
9329;DHT22;4703;48.748;19.142;2023-04-25T06:38:20;11.70;99.90
9329;DHT22;4703;48.748;19.142;2023-04-25T06:40:47;12.00;99.90
9329;DHT22;4703;48.748;19.142;2023-04-25T06:43:14;11.90;99.90
9329;DHT22;4703;48.748;19.142;2023-04-25T06:45:40;10.20;99.90
9329;DHT22;4703;48.748;19.142;2023-04-25T06:48:08;10.90;99.90
9329;DHT22;4703;48.748;19.142;2023-04-25T06:50:35;11.30;99.90
9329;DHT22;4703;48.748;19.142;2023-04-25T06:53:02;11.70;99.90
9329;DHT22;4703;48.748;19.142;2023-04-25T06:55:29;10.00;99.90
9329;DHT22;4703;48.748;19.142;2023-04-25T06:57:56;10.30;99.90
9329;DHT22;4703;48.748;19.142;2023-04-25T07:00:23;11.90;99.90
9329;DHT22;4703;48.748;19.142;2023-04-25T07:02:51;10.10;99.90
9329;DHT22;4703;48.748;19.142;2023-04-25T07:05:18;12.90;99.90
9329;DHT22;4703;48.748;19.142;2023-04-25T07:07:45;12.20;99.90
9329;DHT22;4703;48.748;19.142;2023-04-25T07:10:12;12.80;99.90
9329;DHT22;4703;48.748;19.142;2023-04-25T07:12:39;11.80;99.90
9329;DHT22;4703;48.748;19.142;2023-04-25T07:15:06;10.10;99.90
9329;DHT22;4703;48.748;19.142;2023-04-25T07:17:36;10.10;99.90
9329;DHT22;4703;48.748;19.142;2023-04-25T07:20:04;10.90;99.90
9329;DHT22;4703;48.748;19.142;2023-04-25T07:22:32;10.20;99.90
9329;DHT22;4703;48.748;19.142;2023-04-25T07:24:59;10.30;99.90
9329;DHT22;4703;48.748;19.142;2023-04-25T07:27:27;12.10;99.90
9329;DHT22;4703;48.748;19.142;2023-04-25T07:29:54;12.10;99.90
9329;DHT22;4703;48.748;19.142;2023-04-25T07:32:21;12.50;99.90
9329;DHT22;4703;48.748;19.142;2023-04-25T07:34:48;10.50;99.90
9329;DHT22;4703;48.748;19.142;2023-04-25T07:37:15;11.50;99.90
9329;DHT22;4703;48.748;19.142;2023-04-25T07:39:42;12.70;99.90
9329;DHT22;4703;48.748;19.142;2023-04-25T07:42:09;12.60;99.90
9329;DHT22;4703;48.748;19.142;2023-04-25T07:44:36;12.80;99.90
9329;DHT22;4703;48.748;19.142;2023-04-25T07:47:05;12.20;99.90
9329;DHT22;4703;48.748;19.142;2023-04-25T07:49:36;10.40;99.90
9329;DHT22;4703;48.748;19.142;2023-04-25T07:52:04;11.50;99.90
9329;DHT22;4703;48.748;19.142;2023-04-25T07:54:32;10.80;99.90
9329;DHT22;4703;48.748;19.142;2023-04-25T07:56:59;11.30;99.90
9329;DHT22;4703;48.748;19.142;2023-04-25T07:59:27;12.70;99.90
9329;DHT22;4703;48.748;19.142;2023-04-25T08:01:55;11.60;99.90
9329;DHT22;4703;48.748;19.142;2023-04-25T08:04:24;12.90;99.90
9329;DHT22;4703;48.748;19.142;2023-04-25T08:06:53;11.90;99.90
9329;DHT22;4703;48.748;19.142;2023-04-25T08:09:22;12.60;99.90
9329;DHT22;4703;48.748;19.142;2023-04-25T08:11:49;12.50;99.90
9329;DHT22;4703;48.748;19.142;2023-04-25T08:14:16;11.10;99.90
9329;DHT22;4703;48.748;19.142;2023-04-25T08:16:43;13.10;99.90
9329;DHT22;4703;48.748;19.142;2023-04-25T08:19:11;11.10;99.90
9329;DHT22;4703;48.748;19.142;2023-04-25T08:21:38;11.20;99.90
9329;DHT22;4703;48.748;19.142;2023-04-25T08:24:05;12.00;99.90
9329;DHT22;4703;48.748;19.142;2023-04-25T08:26:32;11.00;99.90
9329;DHT22;4703;48.748;19.142;2023-04-25T08:28:59;12.50;99.90
9329;DHT22;4703;48.748;19.142;2023-04-25T08:31:26;10.90;99.90
9329;DHT22;4703;48.748;19.142;2023-04-25T08:33:54;10.90;99.90
9329;DHT22;4703;48.748;19.142;2023-04-25T08:36:21;12.10;99.90
9329;DHT22;4703;48.748;19.142;2023-04-25T08:39:03;12.20;99.90
9329;DHT22;4703;48.748;19.142;2023-04-25T08:41:31;10.80;99.90
9329;DHT22;4703;48.748;19.142;2023-04-25T08:43:59;12.10;99.90
9329;DHT22;4703;48.748;19.142;2023-04-25T08:46:28;10.70;99.90
9329;DHT22;4703;48.748;19.142;2023-04-25T08:49:00;12.80;99.90
9329;DHT22;4703;48.748;19.142;2023-04-25T08:51:31;12.80;99.90
9329;DHT22;4703;48.748;19.142;2023-04-25T08:54:09;10.80;99.90
9329;DHT22;4703;48.748;19.142;2023-04-25T08:56:57;10.80;99.90
9329;DHT22;4703;48.748;19.142;2023-04-25T08:59:26;10.80;99.90
9329;DHT22;4703;48.748;19.142;2023-04-25T09:01:53;13.20;99.90
9329;DHT22;4703;48.748;19.142;2023-04-25T09:04:21;10.80;99.90
9329;DHT22;4703;48.748;19.142;2023-04-25T09:06:48;11.50;99.90
9329;DHT22;4703;48.748;19.142;2023-04-25T09:09:15;10.90;99.90
9329;DHT22;4703;48.748;19.142;2023-04-25T09:11:42;12.00;99.90
9329;DHT22;4703;48.748;19.142;2023-04-25T09:14:20;11.30;99.90
9329;DHT22;4703;48.748;19.142;2023-04-25T09:19:27;13.00;99.90
9329;DHT22;4703;48.748;19.142;2023-04-25T09:22:07;12.60;99.90
9329;DHT22;4703;48.748;19.142;2023-04-25T09:24:40;11.70;99.90
9329;DHT22;4703;48.748;19.142;2023-04-25T09:27:13;11.90;99.90
9329;DHT22;4703;48.748;19.142;2023-04-25T09:29:45;12.20;99.90
9329;DHT22;4703;48.748;19.142;2023-04-25T09:32:20;11.30;99.90
9329;DHT22;4703;48.748;19.142;2023-04-25T09:34:53;11.40;99.90
9329;DHT22;4703;48.748;19.142;2023-04-25T09:37:26;11.40;99.90
9329;DHT22;4703;48.748;19.142;2023-04-25T09:39:59;11.50;99.90
9329;DHT22;4703;48.748;19.142;2023-04-25T09:42:32;12.00;99.90
9329;DHT22;4703;48.748;19.142;2023-04-25T09:45:01;12.60;99.90
9329;DHT22;4703;48.748;19.142;2023-04-25T09:47:29;13.50;99.90
9329;DHT22;4703;48.748;19.142;2023-04-25T09:49:56;12.60;99.90
9329;DHT22;4703;48.748;19.142;2023-04-25T09:52:24;12.20;99.90
9329;DHT22;4703;48.748;19.142;2023-04-25T09:54:52;13.60;99.90
9329;DHT22;4703;48.748;19.142;2023-04-25T09:57:25;13.00;99.90
9329;DHT22;4703;48.748;19.142;2023-04-25T09:59:54;11.70;99.90
9329;DHT22;4703;48.748;19.142;2023-04-25T10:02:23;12.30;99.90
9329;DHT22;4703;48.748;19.142;2023-04-25T10:04:53;13.70;99.90
9329;DHT22;4703;48.748;19.142;2023-04-25T10:07:26;11.80;99.50
9329;DHT22;4703;48.748;19.142;2023-04-25T10:10:04;13.70;99.90
9329;DHT22;4703;48.748;19.142;2023-04-25T10:12:33;12.00;99.80
9329;DHT22;4703;48.748;19.142;2023-04-25T10:15:01;13.30;99.90
9329;DHT22;4703;48.748;19.142;2023-04-25T10:17:30;12.10;99.30
9329;DHT22;4703;48.748;19.142;2023-04-25T10:19:58;12.80;99.60
9329;DHT22;4703;48.748;19.142;2023-04-25T10:22:39;12.30;99.90
9329;DHT22;4703;48.748;19.142;2023-04-25T10:25:08;12.50;99.70
9329;DHT22;4703;48.748;19.142;2023-04-25T10:27:35;12.60;99.70
9329;DHT22;4703;48.748;19.142;2023-04-25T10:30:07;13.10;99.20
9329;DHT22;4703;48.748;19.142;2023-04-25T10:32:37;12.90;99.30
9329;DHT22;4703;48.748;19.142;2023-04-25T10:35:37;13.30;98.70
9329;DHT22;4703;48.748;19.142;2023-04-25T10:38:11;13.20;97.90
9329;DHT22;4703;48.748;19.142;2023-04-25T10:40:40;13.20;96.90
9329;DHT22;4703;48.748;19.142;2023-04-25T10:43:36;13.80;96.70
9329;DHT22;4703;48.748;19.142;2023-04-25T10:51:26;13.20;96.50
9329;DHT22;4703;48.748;19.142;2023-04-25T10:54:19;13.40;95.90
9329;DHT22;4703;48.748;19.142;2023-04-25T10:56:49;13.50;95.40
9329;DHT22;4703;48.748;19.142;2023-04-25T10:59:18;14.30;96.20
9329;DHT22;4703;48.748;19.142;2023-04-25T11:01:47;13.40;95.70
9329;DHT22;4703;48.748;19.142;2023-04-25T11:04:32;13.20;95.40
9329;DHT22;4703;48.748;19.142;2023-04-25T11:09:57;12.80;95.30
9329;DHT22;4703;48.748;19.142;2023-04-25T11:12:30;12.70;95.60
9329;DHT22;4703;48.748;19.142;2023-04-25T11:15:07;13.40;95.80
9329;DHT22;4703;48.748;19.142;2023-04-25T11:17:35;12.60;95.90
9329;DHT22;4703;48.748;19.142;2023-04-25T11:20:02;13.30;96.40
9329;DHT22;4703;48.748;19.142;2023-04-25T11:22:34;12.50;95.40
9329;DHT22;4703;48.748;19.142;2023-04-25T11:25:05;13.90;95.50
9329;DHT22;4703;48.748;19.142;2023-04-25T11:27:33;12.20;94.20
9329;DHT22;4703;48.748;19.142;2023-04-25T11:30:14;13.80;95.50
9329;DHT22;4703;48.748;19.142;2023-04-25T11:32:45;12.00;94.80
9329;DHT22;4703;48.748;19.142;2023-04-25T11:35:12;12.70;95.10
9329;DHT22;4703;48.748;19.142;2023-04-25T11:37:40;11.80;94.80
9329;DHT22;4703;48.748;19.142;2023-04-25T11:40:08;12.10;95.10
9329;DHT22;4703;48.748;19.142;2023-04-25T11:42:42;11.70;94.30
9329;DHT22;4703;48.748;19.142;2023-04-25T11:45:10;13.20;95.70
9329;DHT22;4703;48.748;19.142;2023-04-25T11:47:38;11.60;95.30
9329;DHT22;4703;48.748;19.142;2023-04-25T11:50:07;13.00;96.00
9329;DHT22;4703;48.748;19.142;2023-04-25T11:52:36;11.50;95.20
9329;DHT22;4703;48.748;19.142;2023-04-25T11:55:13;13.30;96.60
9329;DHT22;4703;48.748;19.142;2023-04-25T11:57:45;12.10;95.90
9329;DHT22;4703;48.748;19.142;2023-04-25T12:00:17;12.30;95.90
9329;DHT22;4703;48.748;19.142;2023-04-25T12:02:50;11.50;95.50
9329;DHT22;4703;48.748;19.142;2023-04-25T12:05:19;12.00;95.80
9329;DHT22;4703;48.748;19.142;2023-04-25T12:07:58;12.40;96.10
9329;DHT22;4703;48.748;19.142;2023-04-25T12:10:25;12.40;96.10
9329;DHT22;4703;48.748;19.142;2023-04-25T12:12:52;11.90;95.40
9329;DHT22;4703;48.748;19.142;2023-04-25T12:15:24;12.90;96.10
9329;DHT22;4703;48.748;19.142;2023-04-25T12:17:53;11.70;95.40
9329;DHT22;4703;48.748;19.142;2023-04-25T12:20:24;12.40;96.10
9329;DHT22;4703;48.748;19.142;2023-04-25T12:22:52;13.00;96.20
9329;DHT22;4703;48.748;19.142;2023-04-25T12:25:39;11.90;95.80
9329;DHT22;4703;48.748;19.142;2023-04-25T12:28:13;12.10;95.70
9329;DHT22;4703;48.748;19.142;2023-04-25T12:30:55;12.70;95.40
9329;DHT22;4703;48.748;19.142;2023-04-25T12:33:28;13.10;95.60
9329;DHT22;4703;48.748;19.142;2023-04-25T12:35:57;12.40;95.10
9329;DHT22;4703;48.748;19.142;2023-04-25T12:38:27;14.00;96.20
9329;DHT22;4703;48.748;19.142;2023-04-25T12:40:57;12.80;94.90
9329;DHT22;4703;48.748;19.142;2023-04-25T12:43:24;13.60;95.10
9329;DHT22;4703;48.748;19.142;2023-04-25T12:45:53;14.50;95.20
9329;DHT22;4703;48.748;19.142;2023-04-25T12:48:21;13.50;94.50
9329;DHT22;4703;48.748;19.142;2023-04-25T12:50:50;13.20;93.90
9329;DHT22;4703;48.748;19.142;2023-04-25T12:53:19;13.80;94.60
9329;DHT22;4703;48.748;19.142;2023-04-25T12:55:47;13.80;94.90
9329;DHT22;4703;48.748;19.142;2023-04-25T12:58:15;13.80;94.40
9329;DHT22;4703;48.748;19.142;2023-04-25T13:00:44;13.90;93.50
9329;DHT22;4703;48.748;19.142;2023-04-25T13:03:12;14.50;93.30
9329;DHT22;4703;48.748;19.142;2023-04-25T13:05:39;14.00;93.20
9329;DHT22;4703;48.748;19.142;2023-04-25T13:08:06;14.40;93.20
9329;DHT22;4703;48.748;19.142;2023-04-25T13:10:33;14.40;92.90
9329;DHT22;4703;48.748;19.142;2023-04-25T13:13:00;14.10;92.50
9329;DHT22;4703;48.748;19.142;2023-04-25T13:15:28;13.70;92.30
9329;DHT22;4703;48.748;19.142;2023-04-25T13:17:54;13.50;92.10
9329;DHT22;4703;48.748;19.142;2023-04-25T13:20:22;14.30;92.70
9329;DHT22;4703;48.748;19.142;2023-04-25T13:22:49;13.50;92.10
9329;DHT22;4703;48.748;19.142;2023-04-25T13:25:16;14.30;92.90
9329;DHT22;4703;48.748;19.142;2023-04-25T13:27:43;13.60;92.50
9329;DHT22;4703;48.748;19.142;2023-04-25T13:30:11;13.80;92.40
9329;DHT22;4703;48.748;19.142;2023-04-25T13:32:39;13.90;92.50
9329;DHT22;4703;48.748;19.142;2023-04-25T13:35:11;14.00;92.30
9329;DHT22;4703;48.748;19.142;2023-04-25T13:37:39;14.20;91.90
9329;DHT22;4703;48.748;19.142;2023-04-25T13:40:08;14.70;91.10
9329;DHT22;4703;48.748;19.142;2023-04-25T13:42:38;14.20;90.90
9329;DHT22;4703;48.748;19.142;2023-04-25T13:45:06;14.30;89.90
9329;DHT22;4703;48.748;19.142;2023-04-25T13:47:34;14.40;89.10
9329;DHT22;4703;48.748;19.142;2023-04-25T13:50:02;14.70;88.60
9329;DHT22;4703;48.748;19.142;2023-04-25T13:52:30;15.00;88.90
9329;DHT22;4703;48.748;19.142;2023-04-25T13:54:58;16.50;88.60
9329;DHT22;4703;48.748;19.142;2023-04-25T13:57:25;15.70;84.10
9329;DHT22;4703;48.748;19.142;2023-04-25T13:59:52;16.10;84.10
9329;DHT22;4703;48.748;19.142;2023-04-25T14:02:22;16.60;83.00
9329;DHT22;4703;48.748;19.142;2023-04-25T14:04:49;17.10;79.90
9329;DHT22;4703;48.748;19.142;2023-04-25T14:07:16;17.50;77.00
9329;DHT22;4703;48.748;19.142;2023-04-25T14:09:44;17.90;73.50
9329;DHT22;4703;48.748;19.142;2023-04-25T14:12:11;18.10;72.40
9329;DHT22;4703;48.748;19.142;2023-04-25T14:14:38;18.40;70.10
9329;DHT22;4703;48.748;19.142;2023-04-25T14:17:05;18.50;68.40
9329;DHT22;4703;48.748;19.142;2023-04-25T14:19:33;18.50;66.50
9329;DHT22;4703;48.748;19.142;2023-04-25T14:22:00;18.50;67.30
9329;DHT22;4703;48.748;19.142;2023-04-25T14:24:29;18.40;66.60
9329;DHT22;4703;48.748;19.142;2023-04-25T14:26:56;18.50;65.80
9329;DHT22;4703;48.748;19.142;2023-04-25T14:29:22;18.60;65.80
9329;DHT22;4703;48.748;19.142;2023-04-25T14:31:49;18.70;65.40
9329;DHT22;4703;48.748;19.142;2023-04-25T14:34:17;18.70;62.40
9329;DHT22;4703;48.748;19.142;2023-04-25T14:36:44;18.60;62.10
9329;DHT22;4703;48.748;19.142;2023-04-25T14:39:10;18.70;60.70
9329;DHT22;4703;48.748;19.142;2023-04-25T14:41:39;18.90;60.10
9329;DHT22;4703;48.748;19.142;2023-04-25T14:44:06;19.10;59.80
9329;DHT22;4703;48.748;19.142;2023-04-25T14:46:33;19.30;59.10
9329;DHT22;4703;48.748;19.142;2023-04-25T14:49:00;19.50;58.60
9329;DHT22;4703;48.748;19.142;2023-04-25T14:51:27;19.70;54.40
9329;DHT22;4703;48.748;19.142;2023-04-25T14:53:54;20.00;56.90
9329;DHT22;4703;48.748;19.142;2023-04-25T14:56:22;20.50;55.30
9329;DHT22;4703;48.748;19.142;2023-04-25T14:58:49;20.90;51.60
9329;DHT22;4703;48.748;19.142;2023-04-25T15:01:16;21.10;51.70
9329;DHT22;4703;48.748;19.142;2023-04-25T15:03:43;21.50;50.50
9329;DHT22;4703;48.748;19.142;2023-04-25T15:06:10;21.80;49.20
9329;DHT22;4703;48.748;19.142;2023-04-25T15:08:37;22.40;49.40
9329;DHT22;4703;48.748;19.142;2023-04-25T15:11:04;23.00;49.10
9329;DHT22;4703;48.748;19.142;2023-04-25T15:13:31;23.60;47.70
9329;DHT22;4703;48.748;19.142;2023-04-25T15:15:59;23.90;44.80
9329;DHT22;4703;48.748;19.142;2023-04-25T15:18:26;24.20;45.00
9329;DHT22;4703;48.748;19.142;2023-04-25T15:20:53;24.60;42.40
9329;DHT22;4703;48.748;19.142;2023-04-25T15:23:20;24.90;42.50
9329;DHT22;4703;48.748;19.142;2023-04-25T15:25:50;25.10;41.30
9329;DHT22;4703;48.748;19.142;2023-04-25T15:28:18;25.40;40.50
9329;DHT22;4703;48.748;19.142;2023-04-25T15:30:47;25.40;39.20
9329;DHT22;4703;48.748;19.142;2023-04-25T15:33:15;25.20;39.40
9329;DHT22;4703;48.748;19.142;2023-04-25T15:35:42;25.50;39.50
9329;DHT22;4703;48.748;19.142;2023-04-25T15:38:09;25.30;38.30
9329;DHT22;4703;48.748;19.142;2023-04-25T15:40:37;25.10;37.60
9329;DHT22;4703;48.748;19.142;2023-04-25T15:43:04;25.10;38.00
9329;DHT22;4703;48.748;19.142;2023-04-25T15:45:31;25.00;37.60
9329;DHT22;4703;48.748;19.142;2023-04-25T15:47:58;25.00;37.00
9329;DHT22;4703;48.748;19.142;2023-04-25T15:50:25;25.00;38.00
9329;DHT22;4703;48.748;19.142;2023-04-25T15:52:52;25.10;37.40
9329;DHT22;4703;48.748;19.142;2023-04-25T15:55:19;24.70;37.10
9329;DHT22;4703;48.748;19.142;2023-04-25T15:57:48;24.50;36.70
9329;DHT22;4703;48.748;19.142;2023-04-25T16:00:17;24.40;37.40
9329;DHT22;4703;48.748;19.142;2023-04-25T16:02:45;24.40;38.30
9329;DHT22;4703;48.748;19.142;2023-04-25T16:05:14;24.60;37.90
9329;DHT22;4703;48.748;19.142;2023-04-25T16:07:42;24.70;38.30